sensor_id;sensor_type;location;lat;lon;timestamp;pressure;altitude;pressure_sealevel;temperature;humidity
57616;BME280;43816;52.054;-9.494;2022-07-22T00:00:04;101829.38;;;20.68;48.97
57616;BME280;43816;52.054;-9.494;2022-07-22T00:00:15;101829.38;;;20.68;49.13
57616;BME280;43816;52.054;-9.494;2022-07-22T00:00:25;101830.38;;;20.67;49.21
57616;BME280;43816;52.054;-9.494;2022-07-22T00:00:35;101830.38;;;20.67;49.12
57616;BME280;43816;52.054;-9.494;2022-07-22T00:00:46;101830.38;;;20.67;48.98
57616;BME280;43816;52.054;-9.494;2022-07-22T00:00:56;101828.50;;;20.68;49.01
57616;BME280;43816;52.054;-9.494;2022-07-22T00:01:06;101833.13;;;20.67;48.86
57616;BME280;43816;52.054;-9.494;2022-07-22T00:01:17;101828.50;;;20.68;48.91
57616;BME280;43816;52.054;-9.494;2022-07-22T00:01:27;101826.81;;;20.67;49.10
57616;BME280;43816;52.054;-9.494;2022-07-22T00:01:37;101822.34;;;20.66;49.12
57616;BME280;43816;52.054;-9.494;2022-07-22T00:01:48;101830.38;;;20.67;48.78
57616;BME280;43816;52.054;-9.494;2022-07-22T00:01:58;101822.19;;;20.67;49.01
57616;BME280;43816;52.054;-9.494;2022-07-22T00:02:08;101824.91;;;20.67;48.98
57616;BME280;43816;52.054;-9.494;2022-07-22T00:02:19;101830.38;;;20.67;48.98
57616;BME280;43816;52.054;-9.494;2022-07-22T00:02:29;101825.94;;;20.66;48.80
57616;BME280;43816;52.054;-9.494;2022-07-22T00:02:40;101823.19;;;20.66;48.97
57616;BME280;43816;52.054;-9.494;2022-07-22T00:02:50;101827.66;;;20.67;48.86
57616;BME280;43816;52.054;-9.494;2022-07-22T00:03:01;101824.91;;;20.67;49.00
57616;BME280;43816;52.054;-9.494;2022-07-22T00:03:11;101828.50;;;20.68;48.79
57616;BME280;43816;52.054;-9.494;2022-07-22T00:03:21;101821.50;;;20.65;49.08
57616;BME280;43816;52.054;-9.494;2022-07-22T00:03:32;101830.38;;;20.67;49.08
57616;BME280;43816;52.054;-9.494;2022-07-22T00:03:42;101828.66;;;20.66;48.89
57616;BME280;43816;52.054;-9.494;2022-07-22T00:03:52;101819.59;;;20.66;49.05
57616;BME280;43816;52.054;-9.494;2022-07-22T00:04:03;101828.66;;;20.66;48.97
57616;BME280;43816;52.054;-9.494;2022-07-22T00:04:13;101821.50;;;20.65;49.12
57616;BME280;43816;52.054;-9.494;2022-07-22T00:04:23;101827.81;;;20.66;49.19
57616;BME280;43816;52.054;-9.494;2022-07-22T00:04:34;101821.50;;;20.65;49.14
57616;BME280;43816;52.054;-9.494;2022-07-22T00:04:44;101821.50;;;20.65;49.13
57616;BME280;43816;52.054;-9.494;2022-07-22T00:04:54;101824.22;;;20.65;48.83
57616;BME280;43816;52.054;-9.494;2022-07-22T00:05:05;101832.44;;;20.65;49.05
57616;BME280;43816;52.054;-9.494;2022-07-22T00:05:16;101829.69;;;20.65;48.93
57616;BME280;43816;52.054;-9.494;2022-07-22T00:05:26;101819.59;;;20.66;48.99
57616;BME280;43816;52.054;-9.494;2022-07-22T00:05:36;101824.22;;;20.65;48.88
57616;BME280;43816;52.054;-9.494;2022-07-22T00:05:47;101824.22;;;20.65;49.12
57616;BME280;43816;52.054;-9.494;2022-07-22T00:05:57;101811.56;;;20.64;49.07
57616;BME280;43816;52.054;-9.494;2022-07-22T00:06:11;101822.50;;;20.64;49.12
57616;BME280;43816;52.054;-9.494;2022-07-22T00:06:21;101823.34;;;20.65;49.03
57616;BME280;43816;52.054;-9.494;2022-07-22T00:06:31;101817.03;;;20.64;49.10
57616;BME280;43816;52.054;-9.494;2022-07-22T00:06:42;101825.22;;;20.64;49.37
57616;BME280;43816;52.054;-9.494;2022-07-22T00:06:52;101818.91;;;20.64;49.08
57616;BME280;43816;52.054;-9.494;2022-07-22T00:07:03;101824.38;;;20.64;48.87
57616;BME280;43816;52.054;-9.494;2022-07-22T00:07:14;101823.53;;;20.63;48.71
57616;BME280;43816;52.054;-9.494;2022-07-22T00:07:24;101818.06;;;20.63;49.09
57616;BME280;43816;52.054;-9.494;2022-07-22T00:07:34;101818.06;;;20.63;48.92
57616;BME280;43816;52.054;-9.494;2022-07-22T00:07:44;101829.00;;;20.63;49.21
57616;BME280;43816;52.054;-9.494;2022-07-22T00:07:55;101814.44;;;20.63;48.82
57616;BME280;43816;52.054;-9.494;2022-07-22T00:08:05;101822.66;;;20.63;49.36
57616;BME280;43816;52.054;-9.494;2022-07-22T00:08:15;101818.19;;;20.62;49.04
57616;BME280;43816;52.054;-9.494;2022-07-22T00:08:26;101821.78;;;20.62;49.01
57616;BME280;43816;52.054;-9.494;2022-07-22T00:08:36;101822.78;;;20.61;49.46
57616;BME280;43816;52.054;-9.494;2022-07-22T00:08:46;101820.94;;;20.62;49.06
57616;BME280;43816;52.054;-9.494;2022-07-22T00:08:57;101820.94;;;20.62;49.03
57616;BME280;43816;52.054;-9.494;2022-07-22T00:09:07;101816.47;;;20.61;49.22
57616;BME280;43816;52.054;-9.494;2022-07-22T00:09:18;101818.34;;;20.60;49.20
57616;BME280;43816;52.054;-9.494;2022-07-22T00:09:28;101822.78;;;20.61;49.14
57616;BME280;43816;52.054;-9.494;2022-07-22T00:09:38;101824.66;;;20.61;49.20
57616;BME280;43816;52.054;-9.494;2022-07-22T00:09:49;101813.72;;;20.61;49.19
57616;BME280;43816;52.054;-9.494;2022-07-22T00:09:59;101820.03;;;20.61;49.22
57616;BME280;43816;52.054;-9.494;2022-07-22T00:10:10;101820.03;;;20.61;49.26
57616;BME280;43816;52.054;-9.494;2022-07-22T00:10:20;101819.19;;;20.61;48.93
57616;BME280;43816;52.054;-9.494;2022-07-22T00:10:30;101813.72;;;20.61;49.13
57616;BME280;43816;52.054;-9.494;2022-07-22T00:10:41;101822.78;;;20.61;49.17
57616;BME280;43816;52.054;-9.494;2022-07-22T00:10:51;101821.09;;;20.60;49.27
57616;BME280;43816;52.054;-9.494;2022-07-22T00:11:03;101819.19;;;20.61;49.19
57616;BME280;43816;52.054;-9.494;2022-07-22T00:11:13;101818.34;;;20.60;48.98
57616;BME280;43816;52.054;-9.494;2022-07-22T00:11:24;101817.47;;;20.60;49.18
57616;BME280;43816;52.054;-9.494;2022-07-22T00:11:34;101819.34;;;20.59;49.04
57616;BME280;43816;52.054;-9.494;2022-07-22T00:11:45;101815.63;;;20.60;49.36
57616;BME280;43816;52.054;-9.494;2022-07-22T00:11:55;101822.09;;;20.59;49.03
57616;BME280;43816;52.054;-9.494;2022-07-22T00:12:05;101816.63;;;20.59;49.29
57616;BME280;43816;52.054;-9.494;2022-07-22T00:12:16;101815.63;;;20.60;49.31
57616;BME280;43816;52.054;-9.494;2022-07-22T00:12:26;101818.34;;;20.60;49.17
57616;BME280;43816;52.054;-9.494;2022-07-22T00:12:38;101822.78;;;20.61;49.18
57616;BME280;43816;52.054;-9.494;2022-07-22T00:12:48;101818.34;;;20.60;49.43
57616;BME280;43816;52.054;-9.494;2022-07-22T00:12:58;101814.72;;;20.60;49.05
57616;BME280;43816;52.054;-9.494;2022-07-22T00:13:09;101813.88;;;20.59;48.95
57616;BME280;43816;52.054;-9.494;2022-07-22T00:13:19;101817.47;;;20.60;49.05
57616;BME280;43816;52.054;-9.494;2022-07-22T00:13:29;101812.00;;;20.60;49.23
57616;BME280;43816;52.054;-9.494;2022-07-22T00:13:40;101818.34;;;20.60;49.25
57616;BME280;43816;52.054;-9.494;2022-07-22T00:13:50;101816.63;;;20.59;48.99
57616;BME280;43816;52.054;-9.494;2022-07-22T00:14:01;101809.41;;;20.58;49.25
57616;BME280;43816;52.054;-9.494;2022-07-22T00:14:11;101811.16;;;20.59;49.02
57616;BME280;43816;52.054;-9.494;2022-07-22T00:14:22;101808.41;;;20.59;49.45
57616;BME280;43816;52.054;-9.494;2022-07-22T00:14:32;101807.56;;;20.59;49.20
57616;BME280;43816;52.054;-9.494;2022-07-22T00:14:43;101819.34;;;20.59;49.33
57616;BME280;43816;52.054;-9.494;2022-07-22T00:14:53;101807.56;;;20.59;49.16
57616;BME280;43816;52.054;-9.494;2022-07-22T00:15:04;101810.31;;;20.59;49.03
57616;BME280;43816;52.054;-9.494;2022-07-22T00:15:15;101803.94;;;20.58;48.97
57616;BME280;43816;52.054;-9.494;2022-07-22T00:15:25;101811.31;;;20.58;49.25
57616;BME280;43816;52.054;-9.494;2022-07-22T00:15:36;101806.69;;;20.58;49.23
57616;BME280;43816;52.054;-9.494;2022-07-22T00:15:46;101809.41;;;20.58;49.10
57616;BME280;43816;52.054;-9.494;2022-07-22T00:15:57;101812.16;;;20.58;49.25
57616;BME280;43816;52.054;-9.494;2022-07-22T00:16:07;101812.16;;;20.58;49.45
57616;BME280;43816;52.054;-9.494;2022-07-22T00:16:17;101808.56;;;20.58;49.32
57616;BME280;43816;52.054;-9.494;2022-07-22T00:16:28;101803.09;;;20.58;48.89
57616;BME280;43816;52.054;-9.494;2022-07-22T00:16:38;101799.53;;;20.57;48.98
57616;BME280;43816;52.054;-9.494;2022-07-22T00:16:48;101813.19;;;20.57;49.00
57616;BME280;43816;52.054;-9.494;2022-07-22T00:16:59;101801.38;;;20.57;49.23
57616;BME280;43816;52.054;-9.494;2022-07-22T00:17:09;101802.25;;;20.57;49.05
57616;BME280;43816;52.054;-9.494;2022-07-22T00:17:19;101804.09;;;20.57;49.35
57616;BME280;43816;52.054;-9.494;2022-07-22T00:17:30;101804.09;;;20.57;49.25
57616;BME280;43816;52.054;-9.494;2022-07-22T00:17:40;101810.47;;;20.57;49.23
57616;BME280;43816;52.054;-9.494;2022-07-22T00:17:50;101800.53;;;20.56;49.09
57616;BME280;43816;52.054;-9.494;2022-07-22T00:18:01;101806.84;;;20.57;49.33
57616;BME280;43816;52.054;-9.494;2022-07-22T00:18:11;101806.00;;;20.56;49.25
57616;BME280;43816;52.054;-9.494;2022-07-22T00:18:21;101807.72;;;20.57;49.21
57616;BME280;43816;52.054;-9.494;2022-07-22T00:18:32;101795.06;;;20.56;49.21
57616;BME280;43816;52.054;-9.494;2022-07-22T00:18:42;101804.09;;;20.57;49.37
57616;BME280;43816;52.054;-9.494;2022-07-22T00:18:53;101795.91;;;20.57;49.48
57616;BME280;43816;52.054;-9.494;2022-07-22T00:19:03;101803.25;;;20.56;49.21
57616;BME280;43816;52.054;-9.494;2022-07-22T00:19:13;101803.25;;;20.56;49.46
57616;BME280;43816;52.054;-9.494;2022-07-22T00:19:24;101805.16;;;20.56;49.30
57616;BME280;43816;52.054;-9.494;2022-07-22T00:19:34;101806.00;;;20.56;49.04
57616;BME280;43816;52.054;-9.494;2022-07-22T00:19:44;101800.53;;;20.56;48.99
57616;BME280;43816;52.054;-9.494;2022-07-22T00:19:55;101798.81;;;20.55;49.13
57616;BME280;43816;52.054;-9.494;2022-07-22T00:20:06;101801.56;;;20.55;49.41
57616;BME280;43816;52.054;-9.494;2022-07-22T00:20:16;101799.84;;;20.54;49.18
57616;BME280;43816;52.054;-9.494;2022-07-22T00:20:27;101808.03;;;20.54;49.14
57616;BME280;43816;52.054;-9.494;2022-07-22T00:20:37;101806.16;;;20.55;49.29
57616;BME280;43816;52.054;-9.494;2022-07-22T00:20:47;101808.03;;;20.54;49.32
57616;BME280;43816;52.054;-9.494;2022-07-22T00:20:58;101803.56;;;20.53;49.29
57616;BME280;43816;52.054;-9.494;2022-07-22T00:21:08;101802.56;;;20.54;49.04
57616;BME280;43816;52.054;-9.494;2022-07-22T00:21:18;101808.03;;;20.54;49.32
57616;BME280;43816;52.054;-9.494;2022-07-22T00:21:29;101802.56;;;20.54;49.28
57616;BME280;43816;52.054;-9.494;2022-07-22T00:21:39;101805.16;;;20.56;49.08
57616;BME280;43816;52.054;-9.494;2022-07-22T00:21:51;101809.75;;;20.55;49.07
57616;BME280;43816;52.054;-9.494;2022-07-22T00:22:01;101809.75;;;20.55;49.14
57616;BME280;43816;52.054;-9.494;2022-07-22T00:22:11;101807.03;;;20.55;49.10
57616;BME280;43816;52.054;-9.494;2022-07-22T00:22:22;101807.03;;;20.55;49.10
57616;BME280;43816;52.054;-9.494;2022-07-22T00:22:32;101807.88;;;20.56;49.29
57616;BME280;43816;52.054;-9.494;2022-07-22T00:22:42;101806.16;;;20.55;48.99
57616;BME280;43816;52.054;-9.494;2022-07-22T00:22:53;101805.31;;;20.54;49.02
57616;BME280;43816;52.054;-9.494;2022-07-22T00:23:03;101802.56;;;20.54;49.22
57616;BME280;43816;52.054;-9.494;2022-07-22T00:23:13;101802.56;;;20.54;49.32
57616;BME280;43816;52.054;-9.494;2022-07-22T00:23:24;101802.56;;;20.54;49.03
57616;BME280;43816;52.054;-9.494;2022-07-22T00:23:34;101808.03;;;20.54;49.38
57616;BME280;43816;52.054;-9.494;2022-07-22T00:23:47;101808.19;;;20.52;49.10
57616;BME280;43816;52.054;-9.494;2022-07-22T00:23:58;101802.56;;;20.54;49.25
57616;BME280;43816;52.054;-9.494;2022-07-22T00:24:08;101797.09;;;20.54;48.99
57616;BME280;43816;52.054;-9.494;2022-07-22T00:24:19;101805.31;;;20.54;49.22
57616;BME280;43816;52.054;-9.494;2022-07-22T00:24:29;101805.47;;;20.52;48.97
57616;BME280;43816;52.054;-9.494;2022-07-22T00:24:39;101801.88;;;20.52;49.12
57616;BME280;43816;52.054;-9.494;2022-07-22T00:24:50;101805.47;;;20.52;49.47
57616;BME280;43816;52.054;-9.494;2022-07-22T00:25:00;101805.47;;;20.52;49.03
57616;BME280;43816;52.054;-9.494;2022-07-22T00:25:10;101803.72;;;20.51;49.18
57616;BME280;43816;52.054;-9.494;2022-07-22T00:25:21;101810.94;;;20.52;49.34
57616;BME280;43816;52.054;-9.494;2022-07-22T00:25:31;101803.72;;;20.51;48.94
57616;BME280;43816;52.054;-9.494;2022-07-22T00:25:41;101802.03;;;20.50;49.29
57616;BME280;43816;52.054;-9.494;2022-07-22T00:25:52;101807.50;;;20.50;49.25
57616;BME280;43816;52.054;-9.494;2022-07-22T00:26:02;101805.63;;;20.51;49.41
57616;BME280;43816;52.054;-9.494;2022-07-22T00:26:13;101800.16;;;20.51;49.22
57616;BME280;43816;52.054;-9.494;2022-07-22T00:26:23;101803.72;;;20.51;49.35
57616;BME280;43816;52.054;-9.494;2022-07-22T00:26:33;101803.72;;;20.51;49.67
57616;BME280;43816;52.054;-9.494;2022-07-22T00:26:44;101805.63;;;20.51;49.29
57616;BME280;43816;52.054;-9.494;2022-07-22T00:26:54;101799.28;;;20.50;49.31
57616;BME280;43816;52.054;-9.494;2022-07-22T00:27:05;101806.63;;;20.50;49.06
57616;BME280;43816;52.054;-9.494;2022-07-22T00:27:15;101798.41;;;20.50;49.26
57616;BME280;43816;52.054;-9.494;2022-07-22T00:27:25;101802.03;;;20.50;49.20
57616;BME280;43816;52.054;-9.494;2022-07-22T00:27:35;101801.16;;;20.50;49.17
57616;BME280;43816;52.054;-9.494;2022-07-22T00:27:46;101802.03;;;20.50;49.14
57616;BME280;43816;52.054;-9.494;2022-07-22T00:27:56;101802.19;;;20.49;49.43
57616;BME280;43816;52.054;-9.494;2022-07-22T00:28:06;101803.88;;;20.50;49.60
57616;BME280;43816;52.054;-9.494;2022-07-22T00:28:17;101804.91;;;20.49;49.28
57616;BME280;43816;52.054;-9.494;2022-07-22T00:28:27;101799.44;;;20.49;49.15
57616;BME280;43816;52.054;-9.494;2022-07-22T00:28:37;101796.88;;;20.47;48.88
57616;BME280;43816;52.054;-9.494;2022-07-22T00:28:47;101809.53;;;20.48;49.10
57616;BME280;43816;52.054;-9.494;2022-07-22T00:28:58;101797.72;;;20.48;49.24
57616;BME280;43816;52.054;-9.494;2022-07-22T00:29:08;101804.06;;;20.48;49.39
57616;BME280;43816;52.054;-9.494;2022-07-22T00:29:19;101805.94;;;20.48;49.31
57616;BME280;43816;52.054;-9.494;2022-07-22T00:29:29;101804.91;;;20.49;49.49
57616;BME280;43816;52.054;-9.494;2022-07-22T00:29:39;101804.91;;;20.49;49.39
57616;BME280;43816;52.054;-9.494;2022-07-22T00:29:49;101803.19;;;20.48;49.44
57616;BME280;43816;52.054;-9.494;2022-07-22T00:30:00;101801.34;;;20.48;49.49
57616;BME280;43816;52.054;-9.494;2022-07-22T00:30:11;101798.59;;;20.48;49.35
57616;BME280;43816;52.054;-9.494;2022-07-22T00:30:22;101802.19;;;20.49;49.19
57616;BME280;43816;52.054;-9.494;2022-07-22T00:30:32;101803.03;;;20.49;49.26
57616;BME280;43816;52.054;-9.494;2022-07-22T00:30:42;101803.19;;;20.48;49.30
57616;BME280;43816;52.054;-9.494;2022-07-22T00:30:53;101804.91;;;20.49;49.17
57616;BME280;43816;52.054;-9.494;2022-07-22T00:31:03;101801.50;;;20.47;49.06
57616;BME280;43816;52.054;-9.494;2022-07-22T00:31:13;101797.03;;;20.46;49.27
57616;BME280;43816;52.054;-9.494;2022-07-22T00:31:24;101800.59;;;20.46;49.36
57616;BME280;43816;52.054;-9.494;2022-07-22T00:31:35;101799.75;;;20.46;49.29
57616;BME280;43816;52.054;-9.494;2022-07-22T00:31:46;101805.22;;;20.46;49.27
57616;BME280;43816;52.054;-9.494;2022-07-22T00:31:56;101801.50;;;20.47;49.24
57616;BME280;43816;52.054;-9.494;2022-07-22T00:32:06;101800.59;;;20.46;49.25
57616;BME280;43816;52.054;-9.494;2022-07-22T00:32:17;101805.22;;;20.46;49.33
57616;BME280;43816;52.054;-9.494;2022-07-22T00:32:27;101800.59;;;20.46;49.23
57616;BME280;43816;52.054;-9.494;2022-07-22T00:32:37;101802.50;;;20.46;49.02
57616;BME280;43816;52.054;-9.494;2022-07-22T00:32:47;101800.78;;;20.45;49.46
57616;BME280;43816;52.054;-9.494;2022-07-22T00:32:58;101805.22;;;20.46;49.73
57616;BME280;43816;52.054;-9.494;2022-07-22T00:33:08;101799.75;;;20.46;49.33
57616;BME280;43816;52.054;-9.494;2022-07-22T00:33:18;101797.19;;;20.44;49.39
57616;BME280;43816;52.054;-9.494;2022-07-22T00:33:29;101805.22;;;20.46;49.33
57616;BME280;43816;52.054;-9.494;2022-07-22T00:33:39;101795.31;;;20.45;49.48
57616;BME280;43816;52.054;-9.494;2022-07-22T00:33:49;101802.66;;;20.44;49.16
57616;BME280;43816;52.054;-9.494;2022-07-22T00:34:00;101800.06;;;20.43;49.29
57616;BME280;43816;52.054;-9.494;2022-07-22T00:34:11;101800.06;;;20.43;49.23
57616;BME280;43816;52.054;-9.494;2022-07-22T00:34:21;101807.28;;;20.44;49.33
57616;BME280;43816;52.054;-9.494;2022-07-22T00:34:31;101804.69;;;20.42;49.43
57616;BME280;43816;52.054;-9.494;2022-07-22T00:34:45;101804.69;;;20.42;49.32
57616;BME280;43816;52.054;-9.494;2022-07-22T00:34:55;101803.84;;;20.42;49.58
57616;BME280;43816;52.054;-9.494;2022-07-22T00:35:06;101798.19;;;20.43;49.76
57616;BME280;43816;52.054;-9.494;2022-07-22T00:35:16;101804.69;;;20.42;49.41
57616;BME280;43816;52.054;-9.494;2022-07-22T00:35:26;101803.84;;;20.42;49.35
57616;BME280;43816;52.054;-9.494;2022-07-22T00:35:37;101796.50;;;20.42;49.57
57616;BME280;43816;52.054;-9.494;2022-07-22T00:35:47;101798.38;;;20.42;49.40
57616;BME280;43816;52.054;-9.494;2022-07-22T00:35:57;101799.22;;;20.42;49.30
57616;BME280;43816;52.054;-9.494;2022-07-22T00:36:08;101798.38;;;20.42;49.43
57616;BME280;43816;52.054;-9.494;2022-07-22T00:36:18;101793.75;;;20.42;49.53
57616;BME280;43816;52.054;-9.494;2022-07-22T00:36:32;101798.38;;;20.42;49.53
57616;BME280;43816;52.054;-9.494;2022-07-22T00:36:43;101799.22;;;20.42;49.61
57616;BME280;43816;52.054;-9.494;2022-07-22T00:36:53;101803.84;;;20.42;49.38
57616;BME280;43816;52.054;-9.494;2022-07-22T00:37:03;101793.91;;;20.41;49.50
57616;BME280;43816;52.054;-9.494;2022-07-22T00:37:14;101798.38;;;20.42;49.50
57616;BME280;43816;52.054;-9.494;2022-07-22T00:37:24;101802.13;;;20.41;49.62
57616;BME280;43816;52.054;-9.494;2022-07-22T00:37:34;101800.22;;;20.41;49.25
57616;BME280;43816;52.054;-9.494;2022-07-22T00:37:44;101793.91;;;20.41;49.36
57616;BME280;43816;52.054;-9.494;2022-07-22T00:37:55;101798.38;;;20.42;49.30
57616;BME280;43816;52.054;-9.494;2022-07-22T00:38:05;101796.66;;;20.41;49.36
57616;BME280;43816;52.054;-9.494;2022-07-22T00:38:15;101801.25;;;20.40;49.46
57616;BME280;43816;52.054;-9.494;2022-07-22T00:38:26;101801.25;;;20.40;49.35
57616;BME280;43816;52.054;-9.494;2022-07-22T00:38:36;101792.03;;;20.41;49.37
57616;BME280;43816;52.054;-9.494;2022-07-22T00:38:46;101795.78;;;20.40;49.27
57616;BME280;43816;52.054;-9.494;2022-07-22T00:38:56;101794.91;;;20.40;49.51
57616;BME280;43816;52.054;-9.494;2022-07-22T00:39:07;101796.66;;;20.41;49.44
57616;BME280;43816;52.054;-9.494;2022-07-22T00:39:17;101799.38;;;20.41;49.31
57616;BME280;43816;52.054;-9.494;2022-07-22T00:39:27;101793.06;;;20.40;49.52
57616;BME280;43816;52.054;-9.494;2022-07-22T00:39:38;101798.53;;;20.40;49.43
57616;BME280;43816;52.054;-9.494;2022-07-22T00:39:48;101795.78;;;20.40;49.46
57616;BME280;43816;52.054;-9.494;2022-07-22T00:39:58;101793.06;;;20.40;49.40
57616;BME280;43816;52.054;-9.494;2022-07-22T00:40:09;101793.22;;;20.39;49.30
57616;BME280;43816;52.054;-9.494;2022-07-22T00:40:20;101799.53;;;20.39;49.45
57616;BME280;43816;52.054;-9.494;2022-07-22T00:40:30;101793.22;;;20.39;49.35
57616;BME280;43816;52.054;-9.494;2022-07-22T00:40:40;101788.59;;;20.39;49.39
57616;BME280;43816;52.054;-9.494;2022-07-22T00:40:50;101792.34;;;20.38;49.53
57616;BME280;43816;52.054;-9.494;2022-07-22T00:41:01;101795.94;;;20.39;49.49
57616;BME280;43816;52.054;-9.494;2022-07-22T00:41:11;101793.22;;;20.39;49.49
57616;BME280;43816;52.054;-9.494;2022-07-22T00:41:22;101799.53;;;20.39;49.43
57616;BME280;43816;52.054;-9.494;2022-07-22T00:41:32;101794.91;;;20.40;49.39
57616;BME280;43816;52.054;-9.494;2022-07-22T00:41:43;101793.22;;;20.39;49.33
57616;BME280;43816;52.054;-9.494;2022-07-22T00:41:53;101790.50;;;20.39;49.24
57616;BME280;43816;52.054;-9.494;2022-07-22T00:42:04;101796.81;;;20.39;49.48
57616;BME280;43816;52.054;-9.494;2022-07-22T00:42:14;101790.50;;;20.39;49.32
57616;BME280;43816;52.054;-9.494;2022-07-22T00:42:25;101789.59;;;20.38;49.30
57616;BME280;43816;52.054;-9.494;2022-07-22T00:42:35;101796.94;;;20.38;49.42
57616;BME280;43816;52.054;-9.494;2022-07-22T00:42:45;101790.63;;;20.37;49.55
57616;BME280;43816;52.054;-9.494;2022-07-22T00:42:55;101798.84;;;20.37;49.56
57616;BME280;43816;52.054;-9.494;2022-07-22T00:43:07;101796.94;;;20.38;49.61
57616;BME280;43816;52.054;-9.494;2022-07-22T00:43:17;101790.63;;;20.37;49.47
57616;BME280;43816;52.054;-9.494;2022-07-22T00:43:27;101792.50;;;20.37;49.59
57616;BME280;43816;52.054;-9.494;2022-07-22T00:44:01;101792.34;;;20.38;49.18
57616;BME280;43816;52.054;-9.494;2022-07-22T00:44:11;101798.84;;;20.37;49.73
57616;BME280;43816;52.054;-9.494;2022-07-22T00:44:22;101792.50;;;20.37;49.42
57616;BME280;43816;52.054;-9.494;2022-07-22T00:44:32;101790.63;;;20.37;49.42
57616;BME280;43816;52.054;-9.494;2022-07-22T00:44:42;101789.75;;;20.37;49.57
57616;BME280;43816;52.054;-9.494;2022-07-22T00:44:52;101794.38;;;20.36;49.43
57616;BME280;43816;52.054;-9.494;2022-07-22T00:45:03;101799.00;;;20.36;49.27
57616;BME280;43816;52.054;-9.494;2022-07-22T00:45:14;101799.00;;;20.36;49.32
57616;BME280;43816;52.054;-9.494;2022-07-22T00:45:24;101796.25;;;20.36;49.47
57616;BME280;43816;52.054;-9.494;2022-07-22T00:45:35;101792.69;;;20.35;49.76
57616;BME280;43816;52.054;-9.494;2022-07-22T00:45:45;101793.53;;;20.36;49.41
57616;BME280;43816;52.054;-9.494;2022-07-22T00:45:55;101799.16;;;20.34;49.31
57616;BME280;43816;52.054;-9.494;2022-07-22T00:46:05;101795.41;;;20.35;49.27
57616;BME280;43816;52.054;-9.494;2022-07-22T00:46:16;101796.41;;;20.34;49.48
57616;BME280;43816;52.054;-9.494;2022-07-22T00:46:27;101794.53;;;20.34;49.31
57616;BME280;43816;52.054;-9.494;2022-07-22T00:46:37;101793.53;;;20.36;49.51
57616;BME280;43816;52.054;-9.494;2022-07-22T00:46:47;101797.25;;;20.34;49.42
57616;BME280;43816;52.054;-9.494;2022-07-22T00:46:58;101791.78;;;20.34;49.35
57616;BME280;43816;52.054;-9.494;2022-07-22T00:47:08;101794.53;;;20.34;49.50
57616;BME280;43816;52.054;-9.494;2022-07-22T00:47:19;101797.25;;;20.34;49.66
57616;BME280;43816;52.054;-9.494;2022-07-22T00:47:29;101794.53;;;20.34;49.57
57616;BME280;43816;52.054;-9.494;2022-07-22T00:47:39;101791.78;;;20.34;49.47
57616;BME280;43816;52.054;-9.494;2022-07-22T00:47:50;101791.09;;;20.32;49.19
57616;BME280;43816;52.054;-9.494;2022-07-22T00:48:00;101791.97;;;20.33;49.35
57616;BME280;43816;52.054;-9.494;2022-07-22T00:48:10;101792.84;;;20.33;49.30
57616;BME280;43816;52.054;-9.494;2022-07-22T00:48:20;101795.56;;;20.33;49.61
57616;BME280;43816;52.054;-9.494;2022-07-22T00:48:31;101789.22;;;20.33;49.34
57616;BME280;43816;52.054;-9.494;2022-07-22T00:48:41;101794.69;;;20.33;49.61
57616;BME280;43816;52.054;-9.494;2022-07-22T00:48:54;101793.84;;;20.32;49.72
57616;BME280;43816;52.054;-9.494;2022-07-22T00:49:06;101789.22;;;20.33;49.40
57616;BME280;43816;52.054;-9.494;2022-07-22T00:49:16;101797.41;;;20.33;49.60
57616;BME280;43816;52.054;-9.494;2022-07-22T00:49:27;101802.03;;;20.32;49.57
57616;BME280;43816;52.054;-9.494;2022-07-22T00:49:37;101792.09;;;20.31;49.52
57616;BME280;43816;52.054;-9.494;2022-07-22T00:49:47;101798.31;;;20.33;49.56
57616;BME280;43816;52.054;-9.494;2022-07-22T00:49:57;101793.84;;;20.32;49.53
57616;BME280;43816;52.054;-9.494;2022-07-22T00:50:08;101797.56;;;20.31;49.38
57616;BME280;43816;52.054;-9.494;2022-07-22T00:50:19;101792.25;;;20.30;49.40
57616;BME280;43816;52.054;-9.494;2022-07-22T00:50:29;101795.88;;;20.30;49.45
57616;BME280;43816;52.054;-9.494;2022-07-22T00:50:40;101791.25;;;20.31;49.53
57616;BME280;43816;52.054;-9.494;2022-07-22T00:50:51;101791.25;;;20.31;49.41
57616;BME280;43816;52.054;-9.494;2022-07-22T00:51:01;101792.09;;;20.31;49.61
57616;BME280;43816;52.054;-9.494;2022-07-22T00:51:13;101784.94;;;20.30;49.48
57616;BME280;43816;52.054;-9.494;2022-07-22T00:51:25;101791.25;;;20.31;49.64
57616;BME280;43816;52.054;-9.494;2022-07-22T00:51:36;101792.09;;;20.31;49.71
57616;BME280;43816;52.054;-9.494;2022-07-22T00:51:46;101792.09;;;20.31;49.50
57616;BME280;43816;52.054;-9.494;2022-07-22T00:51:57;101789.38;;;20.31;49.36
57616;BME280;43816;52.054;-9.494;2022-07-22T00:52:07;101798.63;;;20.30;49.52
57616;BME280;43816;52.054;-9.494;2022-07-22T00:52:19;101788.53;;;20.31;49.41
57616;BME280;43816;52.054;-9.494;2022-07-22T00:52:30;101789.53;;;20.30;49.53
57616;BME280;43816;52.054;-9.494;2022-07-22T00:52:41;101793.16;;;20.30;49.35
57616;BME280;43816;52.054;-9.494;2022-07-22T00:52:52;101790.41;;;20.30;49.69
57616;BME280;43816;52.054;-9.494;2022-07-22T00:53:03;101792.09;;;20.31;49.84
57616;BME280;43816;52.054;-9.494;2022-07-22T00:53:13;101797.56;;;20.31;49.46
57616;BME280;43816;52.054;-9.494;2022-07-22T00:53:23;101782.22;;;20.30;49.73
57616;BME280;43816;52.054;-9.494;2022-07-22T00:53:34;101790.41;;;20.30;49.45
57616;BME280;43816;52.054;-9.494;2022-07-22T00:53:46;101783.06;;;20.31;49.67
57616;BME280;43816;52.054;-9.494;2022-07-22T00:53:57;101794.84;;;20.31;49.60
57616;BME280;43816;52.054;-9.494;2022-07-22T00:54:08;101794.16;;;20.29;49.53
57616;BME280;43816;52.054;-9.494;2022-07-22T00:54:18;101792.25;;;20.30;49.50
57616;BME280;43816;52.054;-9.494;2022-07-22T00:54:29;101790.56;;;20.29;49.65